Time;durP1;ratioP1;P1;durP2;ratioP2;P2;SDS_P1;SDS_P2;PMS_P1;PMS_P2;Temp;Humidity;BMP_temperature;BMP_pressure;BME280_temperature;BME280_humidity;BME280_pressure;Samples;Min_cycle;Max_cycle;Signal;HPM_P1;HPM_P2
2023/10/28 00:01:45;;;;;;;4.28;2.75;;;;;;;-2.34;88.38;99603.97;10223425;29;20040;-84
2023/10/28 00:06:47;;;;;;;5.60;3.15;;;;;;;-2.34;89.62;99599.41;10227174;29;20054;-84
2023/10/28 00:11:50;;;;;;;5.75;4.05;;;;;;;-2.30;89.32;99600.59;10241935;29;20403;-84
2023/10/28 00:16:52;;;;;;;4.40;2.85;;;;;;;-2.34;89.59;99603.97;10240808;29;20040;-84
2023/10/28 00:21:54;;;;;;;8.50;4.03;;;;;;;-2.37;90.43;99599.03;10240784;29;20043;-85
2023/10/28 00:26:57;;;;;;;6.32;4.20;;;;;;;-2.39;90.38;99591.22;10223667;29;20051;-84
2023/10/28 00:31:59;;;;;;;5.03;3.00;;;;;;;-2.41;90.66;99598.69;10247652;29;20039;-84
2023/10/28 00:37:01;;;;;;;3.45;2.15;;;;;;;-2.49;91.14;99583.66;10232780;29;20048;-85
2023/10/28 00:42:04;;;;;;;1.42;1.40;;;;;;;-2.48;91.30;99579.91;10239811;29;20044;-85
2023/10/28 00:47:06;;;;;;;6.30;3.22;;;;;;;-2.45;91.64;99579.47;10206518;29;20067;-85
2023/10/28 00:52:08;;;;;;;4.40;2.08;;;;;;;-2.47;91.98;99570.00;10247786;29;20039;-84
2023/10/28 00:57:12;;;;;;;5.13;3.03;;;;;;;-2.49;92.14;99572.91;10201287;29;20593;-84
2023/10/28 01:02:14;;;;;;;5.10;3.10;;;;;;;-2.54;91.99;99558.50;10248538;29;20050;-84
2023/10/28 01:07:16;;;;;;;4.18;2.65;;;;;;;-2.55;92.74;99556.88;10215400;29;20040;-84
2023/10/28 01:12:21;;;;;;;5.38;2.83;;;;;;;-2.57;92.32;99554.41;10216155;29;20039;-85
2023/10/28 01:17:25;;;;;;;5.28;3.22;;;;;;;-2.56;93.25;99558.75;10248260;29;20132;-85
2023/10/28 01:22:27;;;;;;;5.95;3.47;;;;;;;-2.62;92.95;99556.91;10231286;29;20047;-86
2023/10/28 01:27:30;;;;;;;5.82;2.67;;;;;;;-2.59;92.51;99558.38;10231254;29;20054;-85
2023/10/28 01:32:32;;;;;;;3.60;2.33;;;;;;;-2.54;93.09;99555.81;10230379;29;20403;-85
2023/10/28 01:37:34;;;;;;;3.67;2.28;;;;;;;-2.48;93.46;99549.56;10215385;29;20048;-85
2023/10/28 01:42:36;;;;;;;6.20;2.58;;;;;;;-2.41;93.10;99549.50;10217772;29;20043;-85
2023/10/28 01:47:41;;;;;;;5.60;3.08;;;;;;;-2.53;93.36;99541.34;10245124;29;20086;-86
2023/10/28 01:52:44;;;;;;;1.23;1.15;;;;;;;-2.47;93.39;99532.41;10246236;29;20047;-84
2023/10/28 01:57:46;;;;;;;2.67;1.88;;;;;;;-2.54;93.34;99531.66;10246980;29;20043;-83
2023/10/28 02:02:50;;;;;;;5.65;3.08;;;;;;;-2.55;94.11;99525.47;10214787;29;20040;-86
2023/10/28 02:07:52;;;;;;;5.63;3.70;;;;;;;-2.52;93.80;99516.13;10197909;29;20525;-85
2023/10/28 02:12:54;;;;;;;5.22;3.60;;;;;;;-2.54;93.38;99519.03;10217360;29;20051;-84
2023/10/28 02:17:57;;;;;;;4.28;2.90;;;;;;;-2.52;93.88;99516.97;10243208;29;20047;-84
2023/10/28 02:22:59;;;;;;;4.07;2.80;;;;;;;-2.56;94.06;99510.41;10243827;29;20403;-84
2023/10/28 02:28:05;;;;;;;2.08;1.65;;;;;;;-2.50;94.98;99506.00;10228994;29;20398;-85
2023/10/28 02:33:07;;;;;;;5.05;2.97;;;;;;;-2.52;94.24;99508.91;10246559;29;20047;-86
2023/10/28 02:38:10;;;;;;;5.00;2.90;;;;;;;-2.47;94.51;99510.91;10247282;29;20047;-85
2023/10/28 02:43:12;;;;;;;7.43;3.75;;;;;;;-2.55;94.48;99506.66;10228313;29;20502;-85
2023/10/28 02:48:15;;;;;;;7.75;3.40;;;;;;;-2.52;94.83;99494.66;10228422;29;20056;-85
2023/10/28 02:53:18;;;;;;;6.72;4.03;;;;;;;-2.56;95.31;99488.09;10244043;29;20044;-85
2023/10/28 02:58:23;;;;;;;4.82;2.28;;;;;;;-2.50;95.10;99476.44;10242931;29;20047;-86
2023/10/28 03:03:26;;;;;;;5.13;3.25;;;;;;;-2.50;96.07;99473.75;10243491;29;20047;-86
2023/10/28 03:08:28;;;;;;;5.20;2.90;;;;;;;-2.53;95.85;99472.34;10244965;29;20136;-86
2023/10/28 03:13:30;;;;;;;5.68;3.65;;;;;;;-2.45;96.99;99473.91;10227279;29;20517;-86
2023/10/28 03:18:33;;;;;;;7.00;2.90;;;;;;;-2.48;96.32;99480.53;10227126;29;20054;-86
2023/10/28 03:23:36;;;;;;;5.05;3.55;;;;;;;-2.49;96.38;99472.72;10226395;29;20040;-86
2023/10/28 03:28:42;;;;;;;4.68;3.08;;;;;;;-2.49;96.57;99470.84;10227941;29;20449;-86
2023/10/28 03:33:46;;;;;;;1.23;1.10;;;;;;;-2.45;96.46;99463.97;10241337;29;20047;-85
2023/10/28 03:38:48;;;;;;;4.20;2.50;;;;;;;-2.46;96.43;99466.88;10243097;29;20052;-85
2023/10/28 03:43:51;;;;;;;5.68;2.58;;;;;;;-2.48;96.63;99467.13;10242646;29;20043;-86
2023/10/28 03:48:54;;;;;;;5.43;3.30;;;;;;;-2.44;96.31;99464.78;10243526;29;20052;-86
2023/10/28 03:53:57;;;;;;;5.18;3.25;;;;;;;-2.44;96.80;99454.88;10242923;29;20558;-85
2023/10/28 03:59:00;;;;;;;5.55;3.28;;;;;;;-2.42;96.57;99467.28;10243441;29;20053;-87
2023/10/28 04:04:04;;;;;;;1.27;0.95;;;;;;;-2.37;96.87;99448.59;10226487;29;20036;-86
2023/10/28 04:09:07;;;;;;;4.05;2.33;;;;;;;-2.38;96.68;99446.97;10235430;29;20040;-85
2023/10/28 04:14:09;;;;;;;5.40;2.92;;;;;;;-2.36;96.74;99447.56;10247666;29;20407;-85
2023/10/28 04:19:12;;;;;;;4.50;3.10;;;;;;;-2.39;96.55;99439.97;10232769;29;20048;-85
2023/10/28 04:24:15;;;;;;;3.40;2.17;;;;;;;-2.32;96.70;99436.13;10220518;29;20056;-84
2023/10/28 04:29:19;;;;;;;2.95;2.28;;;;;;;-2.34;96.66;99427.47;10226829;29;20461;-86
2023/10/28 04:34:21;;;;;;;7.32;3.65;;;;;;;-2.37;96.57;99427.13;10231759;29;20044;-86
2023/10/28 04:39:23;;;;;;;2.47;2.00;;;;;;;-2.36;96.88;99426.06;10251333;29;20076;-85
2023/10/28 04:44:26;;;;;;;6.55;3.83;;;;;;;-2.35;96.47;99417.78;10247012;29;20063;-84
2023/10/28 04:49:29;;;;;;;6.60;2.85;;;;;;;-2.30;96.53;99422.47;10232862;29;20048;-86
2023/10/28 04:54:31;;;;;;;7.75;2.67;;;;;;;-2.28;96.78;99415.81;10229757;29;20423;-86
2023/10/28 04:59:33;;;;;;;5.38;3.05;;;;;;;-2.26;96.33;99416.41;10232366;29;20051;-84
2023/10/28 05:04:35;;;;;;;6.93;3.45;;;;;;;-2.28;96.31;99410.44;10250486;29;20051;-86
2023/10/28 05:09:38;;;;;;;5.50;3.00;;;;;;;-2.20;96.40;99415.50;10249253;29;20043;-86
2023/10/28 05:14:41;;;;;;;5.72;3.30;;;;;;;-2.27;96.42;99416.63;10216556;29;20046;-86
2023/10/28 05:19:43;;;;;;;5.32;3.10;;;;;;;-2.26;96.90;99416.41;10232761;29;20052;-85
2023/10/28 05:24:45;;;;;;;5.35;2.60;;;;;;;-2.24;96.18;99416.19;10227687;29;20514;-86
2023/10/28 05:29:48;;;;;;;4.13;2.45;;;;;;;-2.23;95.89;99413.28;10247228;29;20064;-85
2023/10/28 05:34:50;;;;;;;5.47;3.80;;;;;;;-2.21;95.81;99421.13;10244988;29;20044;-86
2023/10/28 05:39:53;;;;;;;3.90;2.78;;;;;;;-2.20;96.04;99428.94;10230023;29;20074;-85
2023/10/28 05:44:55;;;;;;;5.40;2.53;;;;;;;-2.13;95.72;99421.59;10247130;29;20060;-86
2023/10/28 05:49:57;;;;;;;4.13;2.38;;;;;;;-2.08;95.84;99415.56;10248590;29;20048;-86
2023/10/28 05:54:59;;;;;;;2.25;1.52;;;;;;;-2.04;95.25;99421.28;10209892;29;20038;-85
2023/10/28 06:00:02;;;;;;;5.07;2.40;;;;;;;-2.07;95.05;99422.56;10206749;29;20047;-87
2023/10/28 06:05:09;;;;;;;5.25;3.25;;;;;;;-2.03;95.34;99426.44;10244738;29;20134;-85
2023/10/28 06:10:11;;;;;;;5.70;2.83;;;;;;;-2.13;95.47;99416.22;10245592;29;20046;-86
2023/10/28 06:15:14;;;;;;;3.30;2.45;;;;;;;-2.09;95.99;99410.38;10228236;29;20043;-86
2023/10/28 06:20:20;;;;;;;7.22;2.85;;;;;;;-2.01;95.50;99418.13;10228772;29;20047;-85
2023/10/28 06:25:22;;;;;;;5.65;3.38;;;;;;;-2.02;95.41;99424.56;10243416;29;20039;-85
2023/10/28 06:30:24;;;;;;;5.80;2.10;;;;;;;-2.04;95.38;99402.47;10243724;29;20414;-85
2023/10/28 06:35:27;;;;;;;4.43;1.85;;;;;;;-2.01;95.36;99407.38;10244403;29;20051;-84
2023/10/28 06:40:29;;;;;;;7.55;3.67;;;;;;;-2.10;95.12;99414.13;10220383;29;20431;-85
2023/10/28 06:45:31;;;;;;;4.78;3.08;;;;;;;-2.03;95.27;99406.81;10225815;29;20502;-85
2023/10/28 06:50:33;;;;;;;7.07;3.20;;;;;;;-2.04;95.40;99405.16;10228217;29;20050;-86
2023/10/28 06:55:37;;;;;;;6.63;2.78;;;;;;;-2.03;95.33;99417.56;10243325;29;20434;-86
2023/10/28 07:00:40;;;;;;;4.80;2.38;;;;;;;-1.99;95.13;99418.72;10244529;29;20048;-86
2023/10/28 07:05:45;;;;;;;1.77;1.67;;;;;;;-1.97;95.32;99400.50;10225726;29;20058;-85
2023/10/28 07:10:48;;;;;;;5.72;3.05;;;;;;;-2.01;95.67;99410.06;10244849;29;20043;-85
2023/10/28 07:16:00;;;;;;;6.38;2.85;;;;;;;-1.96;95.45;99416.41;10220949;29;20040;-84
2023/10/28 07:21:03;;;;;;;3.70;2.25;;;;;;;-1.95;94.89;99423.41;10223869;29;20043;-85
2023/10/28 07:26:05;;;;;;;3.53;2.40;;;;;;;-1.88;95.05;99434.91;10227555;29;20039;-85
2023/10/28 07:31:40;;;;;;;11.40;2.72;;;;;;;-1.74;94.66;99442.75;10246374;29;20039;-85
2023/10/28 07:36:42;;;;;;;11.15;3.85;;;;;;;-1.66;94.08;99445.94;10238196;29;20058;-82
2023/10/28 07:41:50;;;;;;;8.23;2.60;;;;;;;-1.61;93.01;99445.22;10244743;29;20043;-86
2023/10/28 07:53:30;;;;;;;4.05;2.88;;;;;;;-1.36;91.63;99453.13;10238789;29;20143;-85
2023/10/28 07:58:33;;;;;;;6.65;3.45;;;;;;;-1.30;91.17;99446.81;10239955;29;20046;-84
2023/10/28 08:03:44;;;;;;;5.78;2.90;;;;;;;-1.19;91.17;99437.09;10243301;29;20058;-85
2023/10/28 08:08:46;;;;;;;3.65;1.65;;;;;;;-1.20;89.88;99438.97;10242088;29;20589;-86
2023/10/28 08:13:49;;;;;;;4.85;2.60;;;;;;;-1.18;90.08;99442.25;10210674;29;20040;-86
2023/10/28 08:18:52;;;;;;;6.53;2.10;;;;;;;-1.14;90.51;99440.72;10240229;29;20050;-85
2023/10/28 08:23:54;;;;;;;2.97;2.35;;;;;;;-1.17;90.26;99446.56;10243191;29;20590;-86
2023/10/28 08:28:59;;;;;;;4.03;2.45;;;;;;;-1.05;89.93;99446.56;10245072;29;20553;-85
2023/10/28 08:34:04;;;;;;;4.90;2.65;;;;;;;-0.73;88.50;99449.69;10219033;29;20039;-85
2023/10/28 08:40:15;;;;;;;12.00;3.20;;;;;;;-0.77;88.55;99453.94;10196669;29;20539;-85
2023/10/28 08:45:18;;;;;;;7.75;3.03;;;;;;;-0.78;88.38;99453.09;10196980;29;20048;-85
2023/10/28 08:50:24;;;;;;;7.20;3.65;;;;;;;-0.86;87.71;99450.78;10199857;29;20056;-84
2023/10/28 08:55:26;;;;;;;4.03;2.30;;;;;;;-0.89;88.05;99461.19;10203656;29;20036;-83
2023/10/28 09:00:30;;;;;;;4.90;2.53;;;;;;;-0.84;87.92;99458.63;10189096;29;20052;-86
2023/10/28 09:05:32;;;;;;;8.65;2.38;;;;;;;-0.65;88.22;99450.16;10195285;29;20059;-84
2023/10/28 09:10:37;;;;;;;4.70;2.78;;;;;;;-0.61;87.12;99451.31;10229641;29;20058;-84
2023/10/28 09:15:39;;;;;;;3.63;2.05;;;;;;;-0.72;87.01;99456.72;10204658;29;20414;-83
2023/10/28 09:20:42;;;;;;;2.30;1.10;;;;;;;-0.70;87.29;99462.69;10244798;29;20047;-88
2023/10/28 09:25:44;;;;;;;2.60;1.42;;;;;;;-0.71;86.71;99458.34;10243726;29;20418;-86
2023/10/28 09:30:47;;;;;;;3.38;2.22;;;;;;;-0.73;87.58;99463.16;10226336;29;20502;-86
2023/10/28 09:35:53;;;;;;;3.08;2.13;;;;;;;-0.68;87.08;99457.91;10220587;29;20081;-84
2023/10/28 09:41:01;;;;;;;5.03;2.75;;;;;;;-0.58;86.96;99450.03;10245718;29;20044;-86
2023/10/28 09:46:05;;;;;;;7.73;2.27;;;;;;;-0.67;86.77;99454.97;10211125;29;20587;-87
2023/10/28 09:51:08;;;;;;;1.95;1.60;;;;;;;-0.74;86.57;99450.75;10246916;29;20036;-85
2023/10/28 09:56:13;;;;;;;4.15;1.80;;;;;;;-0.68;86.91;99444.44;10236495;29;20043;-83
2023/10/28 10:01:37;;;;;;;2.92;2.33;;;;;;;-0.57;86.61;99443.56;10229122;29;20043;-83
2023/10/28 10:06:39;;;;;;;3.28;2.13;;;;;;;-0.50;86.03;99449.66;10221380;29;20044;-86
2023/10/28 10:11:45;;;;;;;3.13;1.75;;;;;;;-0.57;86.48;99445.44;10217725;29;20040;-81
2023/10/28 10:17:03;;;;;;;4.68;2.55;;;;;;;-0.69;86.81;99457.09;10197468;29;20044;-81
2023/10/28 10:22:06;;;;;;;2.70;1.77;;;;;;;-0.64;87.11;99456.38;10204121;29;20477;-83
2023/10/28 10:27:10;;;;;;;3.70;2.10;;;;;;;-0.41;86.59;99448.22;10222428;29;20039;-86
2023/10/28 10:32:19;;;;;;;3.08;1.67;;;;;;;-0.46;85.87;99441.91;10191281;29;20039;-85
2023/10/28 10:37:25;;;;;;;2.15;1.90;;;;;;;-0.44;85.78;99447.88;10225240;29;20039;-85
2023/10/28 10:42:27;;;;;;;3.50;2.05;;;;;;;-0.61;86.39;99453.19;10255821;29;20058;-85
2023/10/28 10:47:29;;;;;;;2.55;1.77;;;;;;;-0.62;86.85;99441.59;10220869;29;20062;-88
2023/10/28 10:52:35;;;;;;;3.50;2.08;;;;;;;-0.48;87.07;99444.84;10241985;29;20051;-89
2023/10/28 10:57:38;;;;;;;6.55;3.03;;;;;;;-0.39;87.21;99451.50;10201791;29;20080;-84
2023/10/28 11:02:40;;;;;;;5.28;2.50;;;;;;;-0.36;87.66;99447.50;10222759;29;20414;-85
2023/10/28 11:07:43;;;;;;;14.02;1.50;;;;;;;-0.40;88.30;99454.44;10228603;29;20079;-83
2023/10/28 11:12:49;;;;;;;3.35;2.33;;;;;;;-0.24;87.87;99452.84;10241438;29;20046;-87
2023/10/28 11:17:51;;;;;;;4.57;2.10;;;;;;;-0.24;87.51;99447.47;10225411;29;20043;-87
2023/10/28 11:28:50;;;;;;;3.33;2.38;;;;;;;-0.27;87.75;99453.34;10225355;29;20046;-87
2023/10/28 11:34:04;;;;;;;3.97;1.75;;;;;;;-0.21;87.46;99446.97;10217067;29;20044;-89
2023/10/28 11:39:09;;;;;;;7.78;2.28;;;;;;;-0.28;87.69;99441.75;10197306;29;20095;-89
2023/10/28 11:44:16;;;;;;;5.10;1.60;;;;;;;-0.27;87.53;99442.56;10214711;29;20051;-90
2023/10/28 11:49:22;;;;;;;1.75;1.58;;;;;;;-0.29;87.93;99439.28;10176195;29;20099;-86
2023/10/28 11:54:25;;;;;;;4.10;2.35;;;;;;;-0.34;88.14;99442.72;10176888;29;20044;-88
2023/10/28 11:59:33;;;;;;;2.08;1.27;;;;;;;-0.32;88.24;99438.72;10203093;29;20043;-87
2023/10/28 12:05:01;;;;;;;3.53;1.63;;;;;;;-0.32;88.11;99454.06;10191625;29;20047;-87
2023/10/28 12:10:13;;;;;;;3.63;2.07;;;;;;;-0.29;88.54;99448.19;10234468;29;20158;-85
2023/10/28 12:15:59;;;;;;;3.47;1.95;;;;;;;-0.24;89.22;99437.50;10200899;29;20483;-84
2023/10/28 12:21:02;;;;;;;3.92;2.13;;;;;;;-0.21;89.09;99442.41;10194462;29;20136;-83
2023/10/28 12:26:04;;;;;;;3.17;2.08;;;;;;;-0.24;88.89;99442.91;10197700;29;20046;-84
2023/10/28 12:31:07;;;;;;;3.08;2.17;;;;;;;-0.24;88.62;99437.50;10206656;29;20581;-86
2023/10/28 12:36:10;;;;;;;3.03;1.63;;;;;;;-0.19;88.46;99445.69;10186815;29;20048;-82
2023/10/28 12:41:13;;;;;;;3.40;1.92;;;;;;;-0.16;88.57;99455.19;10205597;29;20053;-84
2023/10/28 12:46:15;;;;;;;3.50;1.65;;;;;;;-0.16;88.34;99442.53;10208115;29;20064;-86
2023/10/28 12:51:20;;;;;;;3.58;2.55;;;;;;;-0.17;89.10;99448.16;10241429;29;20051;-86
2023/10/28 12:56:23;;;;;;;3.42;2.50;;;;;;;-0.17;88.91;99458.94;10245622;29;20506;-84
2023/10/28 13:02:11;;;;;;;1.45;0.88;;;;;;;-0.20;88.93;99465.63;10232713;29;20043;-84
2023/10/28 13:07:15;;;;;;;2.60;1.90;;;;;;;-0.25;88.46;99472.78;10244990;29;20486;-88
2023/10/28 13:12:19;;;;;;;2.25;1.77;;;;;;;-0.28;88.72;99470.56;10210375;29;20039;-84
2023/10/28 13:17:23;;;;;;;4.03;2.33;;;;;;;-0.27;89.28;99467.63;10220953;29;20043;-85
2023/10/28 13:22:26;;;;;;;2.55;1.77;;;;;;;-0.28;89.14;99482.19;10251773;29;20047;-85
2023/10/28 13:27:37;;;;;;;3.72;1.65;;;;;;;-0.27;89.32;99486.50;10260856;29;20040;-85
2023/10/28 13:32:41;;;;;;;1.85;1.40;;;;;;;-0.27;89.51;99478.44;10244929;29;20040;-86
2023/10/28 13:37:43;;;;;;;3.90;1.88;;;;;;;-0.28;89.27;99487.56;10232585;29;20129;-86
2023/10/28 13:42:46;;;;;;;3.50;1.98;;;;;;;-0.33;90.08;99488.28;10249488;29;20050;-84
2023/10/28 13:47:51;;;;;;;1.95;1.30;;;;;;;-0.38;91.34;99495.44;10256007;29;20054;-86
2023/10/28 13:52:53;;;;;;;4.15;1.88;;;;;;;-0.42;92.47;99497.78;10251404;29;20040;-83
2023/10/28 13:57:56;;;;;;;2.45;1.98;;;;;;;-0.37;92.88;99503.28;10234004;29;20035;-85
2023/10/28 14:02:59;;;;;;;3.03;2.05;;;;;;;-0.36;92.71;99502.22;10201764;29;20048;-86
2023/10/28 14:08:02;;;;;;;3.67;2.15;;;;;;;-0.34;92.66;99507.41;10228076;29;20044;-83
2023/10/28 14:13:04;;;;;;;2.25;1.60;;;;;;;-0.28;93.13;99511.00;10238957;29;20047;-87
2023/10/28 14:18:08;;;;;;;2.53;1.63;;;;;;;-0.37;92.98;99514.06;10248761;29;20051;-82
2023/10/28 14:23:10;;;;;;;4.18;2.75;;;;;;;-0.38;92.78;99514.28;10206874;29;20390;-83
2023/10/28 14:28:13;;;;;;;0.98;0.98;;;;;;;-0.34;92.45;99520.88;10242788;29;20518;-86
2023/10/28 14:33:15;;;;;;;1.42;1.27;;;;;;;-0.34;91.77;99527.09;10243491;29;20039;-82
2023/10/28 14:38:19;;;;;;;3.05;1.92;;;;;;;-0.33;92.12;99526.03;10244462;29;20055;-82
2023/10/28 14:43:21;;;;;;;1.30;1.05;;;;;;;-0.31;91.75;99529.31;10244981;29;20410;-82
2023/10/28 14:48:24;;;;;;;1.83;1.13;;;;;;;-0.33;91.57;99526.03;10209704;29;20048;-81
2023/10/28 14:53:26;;;;;;;3.00;1.65;;;;;;;-0.42;91.73;99522.03;10214219;29;20051;-87
2023/10/28 14:58:28;;;;;;;1.10;0.93;;;;;;;-0.37;91.88;99515.94;10245888;29;20048;-83
2023/10/28 15:03:31;;;;;;;2.45;1.83;;;;;;;-0.35;91.78;99525.44;10211343;29;20043;-83
2023/10/28 15:08:34;;;;;;;3.28;1.92;;;;;;;-0.39;91.61;99521.56;10228036;29;20043;-86
2023/10/28 15:13:39;;;;;;;5.57;2.42;;;;;;;-0.39;91.75;99516.19;10243349;29;20046;-87
2023/10/28 15:18:42;;;;;;;1.65;1.55;;;;;;;-0.37;91.74;99519.44;10212991;29;20395;-85
2023/10/28 15:23:47;;;;;;;2.65;1.77;;;;;;;-0.41;91.78;99520.97;10245954;29;20050;-84
2023/10/28 15:28:52;;;;;;;3.70;2.05;;;;;;;-0.45;91.71;99517.13;10228434;29;20039;-90
2023/10/28 15:33:54;;;;;;;1.38;1.02;;;;;;;-0.44;91.40;99531.44;10198544;29;20051;-84
2023/10/28 15:38:58;;;;;;;2.85;2.03;;;;;;;-0.47;90.88;99534.59;10213869;29;20051;-87
2023/10/28 15:44:15;;;;;;;2.10;1.50;;;;;;;-0.44;90.62;99551.09;10209222;29;20063;-88
2023/10/28 15:49:42;;;;;;;1.65;1.35;;;;;;;-0.42;89.98;99557.09;10236612;29;20122;-88
2023/10/28 15:54:48;;;;;;;2.17;1.90;;;;;;;-0.41;89.94;99555.19;10231277;29;20047;-87
2023/10/28 15:59:51;;;;;;;3.67;1.55;;;;;;;-0.44;90.39;99566.47;10244030;29;20533;-88
2023/10/28 16:04:54;;;;;;;2.38;1.65;;;;;;;-0.46;90.02;99569.41;10222053;29;20091;-87
2023/10/28 16:09:57;;;;;;;1.92;1.45;;;;;;;-0.39;90.16;99567.38;10213138;29;20055;-87
2023/10/28 16:15:09;;;;;;;3.70;2.10;;;;;;;-0.32;90.27;99578.06;10266878;29;20073;-87
2023/10/28 16:21:29;;;;;;;1.77;1.52;;;;;;;-0.40;89.60;99578.41;10281144;29;20183;-87
2023/10/28 16:26:48;;;;;;;3.88;2.30;;;;;;;-0.36;89.71;99588.47;10246876;29;20039;-85
2023/10/28 16:31:53;;;;;;;2.65;2.10;;;;;;;-0.41;89.81;99591.06;10250435;29;20044;-91
2023/10/28 16:36:55;;;;;;;2.28;2.08;;;;;;;-0.41;89.79;99595.63;10220919;29;20044;-91
2023/10/28 16:42:02;;;;;;;4.18;2.40;;;;;;;-0.43;89.10;99587.78;10228495;29;20055;-94
2023/10/28 16:47:17;;;;;;;4.20;2.17;;;;;;;-0.45;89.29;99592.59;10207084;29;20138;-94
2023/10/28 16:52:30;;;;;;;5.18;2.22;;;;;;;-0.47;89.31;99588.50;10213303;29;20511;-90
2023/10/28 16:58:02;;;;;;;2.65;2.15;;;;;;;-0.44;88.59;99585.31;10195478;29;20045;-89
2023/10/28 17:03:25;;;;;;;;;;;;;;;-0.46;88.83;99588.25;10214293;29;20083;-89
2023/10/28 17:08:32;;;;;;;2.65;2.05;;;;;;;-0.39;88.62;99593.50;10217986;29;20404;-93
2023/10/28 17:13:38;;;;;;;5.47;2.55;;;;;;;-0.44;88.83;99594.22;10216449;29;20035;-90
2023/10/28 17:19:12;;;;;;;3.40;2.85;;;;;;;-0.52;88.55;99580.28;10235887;29;20107;-90
2023/10/28 17:24:25;;;;;;;3.60;2.75;;;;;;;-0.51;88.77;99587.31;10262527;29;20130;-88
2023/10/28 17:29:45;;;;;;;4.13;3.05;;;;;;;-0.51;88.69;99590.84;10241830;29;20095;-87
2023/10/28 17:40:51;;;;;;;6.38;2.63;;;;;;;-0.48;88.67;99594.94;10263400;29;20063;-91
2023/10/28 17:46:08;;;;;;;3.53;2.58;;;;;;;-0.54;88.67;99585.91;10230125;29;20171;-86
2023/10/28 17:51:28;;;;;;;2.85;2.00;;;;;;;-0.57;88.80;99589.06;10246534;29;20062;-87
2023/10/28 17:56:40;;;;;;;5.22;2.70;;;;;;;-0.57;89.09;99599.84;10209225;29;20059;-90
2023/10/28 18:08:24;;;;;;;5.30;1.67;;;;;;;-0.59;89.35;99599.25;10134361;29;20055;-90
2023/10/28 18:13:38;;;;;;;2.25;1.70;;;;;;;-0.61;89.26;99601.38;10111711;29;20045;-85
2023/10/28 18:18:47;;;;;;;3.03;1.95;;;;;;;-0.63;89.24;99598.09;10210906;29;20071;-85
2023/10/28 18:24:18;;;;;;;3.38;1.80;;;;;;;-0.61;89.05;99604.88;10262724;29;20047;-85
2023/10/28 18:30:10;;;;;;;2.47;1.55;;;;;;;-0.66;89.19;99612.03;10259566;29;20116;-86
2023/10/28 18:35:44;;;;;;;5.82;1.90;;;;;;;-0.64;89.01;99612.63;10238041;29;20676;-84
2023/10/28 18:41:27;;;;;;;2.10;1.55;;;;;;;-0.68;88.72;99617.66;10235245;29;20111;-87
2023/10/28 18:46:39;;;;;;;2.83;1.88;;;;;;;-0.68;89.36;99619.53;10219905;29;20073;-86
2023/10/28 18:51:49;;;;;;;3.60;1.85;;;;;;;-0.69;89.59;99617.91;10241697;29;20051;-87
2023/10/28 18:56:59;;;;;;;4.72;2.58;;;;;;;-0.68;89.84;99627.63;10243964;29;20414;-85
2023/10/28 19:02:46;;;;;;;4.97;2.47;;;;;;;-0.67;90.17;99631.94;10260745;29;20082;-85
2023/10/28 19:08:07;;;;;;;3.08;1.98;;;;;;;-0.67;89.53;99643.53;10241616;29;20031;-87
2023/10/28 19:13:14;;;;;;;4.95;2.08;;;;;;;-0.69;89.46;99650.22;10246460;29;20046;-86
2023/10/28 19:18:26;;;;;;;4.15;2.30;;;;;;;-0.68;89.45;99649.16;10242659;28;20035;-89
2023/10/28 19:23:29;;;;;;;3.72;2.38;;;;;;;-0.71;89.54;99649.59;10243473;29;20084;-86
2023/10/28 19:28:31;;;;;;;3.80;2.25;;;;;;;-0.77;89.69;99653.22;10247695;29;20069;-84
2023/10/28 19:33:42;;;;;;;3.35;2.00;;;;;;;-0.76;90.11;99657.56;10254255;29;20071;-86
2023/10/28 19:39:31;;;;;;;3.80;2.35;;;;;;;-0.85;89.33;99669.75;10233516;29;20517;-87
2023/10/28 19:52:30;;;;;;;1.73;1.45;;;;;;;-0.88;89.32;99670.19;10137145;23;19987;-69
2023/10/28 19:57:33;;;;;;;2.22;1.88;;;;;;;-0.86;89.03;99682.38;10227927;29;20055;-69
2023/10/28 20:02:35;;;;;;;3.95;1.55;;;;;;;-0.88;88.59;99689.84;10232558;29;20051;-69
2023/10/28 20:07:37;;;;;;;1.85;1.70;;;;;;;-0.84;88.18;99693.75;10242466;23;20062;-67
2023/10/28 20:12:40;;;;;;;2.72;1.55;;;;;;;-0.86;88.26;99698.53;10271403;29;20050;-65
2023/10/28 20:17:43;;;;;;;1.40;1.30;;;;;;;-0.84;88.07;99695.63;10266969;29;20434;-66
2023/10/28 20:22:46;;;;;;;2.47;1.27;;;;;;;-0.92;87.75;99702.97;10259960;23;20051;-77
2023/10/28 20:27:49;;;;;;;3.40;2.00;;;;;;;-0.89;87.62;99708.94;10254813;29;20543;-73
2023/10/28 20:32:51;;;;;;;3.08;1.83;;;;;;;-0.86;87.75;99714.72;10279232;29;20047;-76
2023/10/28 20:37:54;;;;;;;3.25;1.50;;;;;;;-0.87;87.84;99717.59;10273832;23;20115;-68
2023/10/28 20:42:57;;;;;;;3.42;1.60;;;;;;;-0.88;87.72;99715.97;10235003;29;20039;-67
2023/10/28 20:47:59;;;;;;;4.25;1.85;;;;;;;-0.80;87.17;99715.66;10243333;29;20044;-66
2023/10/28 20:53:02;;;;;;;5.80;2.05;;;;;;;-0.78;87.21;99727.00;10216092;29;20035;-66
2023/10/28 20:58:05;;;;;;;2.05;1.73;;;;;;;-0.80;86.87;99729.13;10256272;23;20029;-67
2023/10/28 21:03:08;;;;;;;2.25;1.60;;;;;;;-0.82;87.07;99731.22;10277400;28;20069;-67
2023/10/28 21:08:11;;;;;;;2.90;1.88;;;;;;;-0.81;87.01;99732.88;10288311;29;20054;-67
2023/10/28 21:13:13;;;;;;;1.70;1.40;;;;;;;-0.76;86.79;99741.06;10297020;23;20320;-74
2023/10/28 21:18:21;;;;;;;1.83;1.63;;;;;;;-0.75;86.17;99734.63;10234134;29;20668;-74
2023/10/28 21:23:48;;;;;;;2.90;1.70;;;;;;;-0.80;86.05;99745.28;10199121;29;20043;-75
2023/10/28 21:28:51;;;;;;;1.88;1.50;;;;;;;-0.70;86.08;99745.53;10225619;29;20044;-68
2023/10/28 21:33:53;;;;;;;2.10;1.70;;;;;;;-0.71;86.02;99757.34;10257910;29;20043;-70
2023/10/28 21:38:56;;;;;;;1.50;1.40;;;;;;;-0.76;85.66;99766.13;10238210;29;20047;-72
2023/10/28 21:44:02;;;;;;;2.42;1.80;;;;;;;-0.74;85.86;99761.34;10244938;29;20048;-72
2023/10/28 21:49:41;;;;;;;1.90;1.38;;;;;;;-0.81;85.46;99781.34;10160287;29;20545;-74
2023/10/28 21:54:52;;;;;;;1.58;1.33;;;;;;;-0.86;85.04;99773.94;10201477;29;20051;-72
2023/10/28 22:01:01;;;;;;;1.83;1.23;;;;;;;-0.82;85.48;99785.09;10179912;29;20051;-73
2023/10/28 22:06:03;;;;;;;3.33;1.85;;;;;;;-0.84;85.65;99785.31;10166182;29;20142;-72
2023/10/28 22:11:07;;;;;;;1.90;1.55;;;;;;;-0.82;85.36;99782.41;10233658;29;20411;-73
2023/10/28 22:16:26;;;;;;;2.03;1.45;;;;;;;-0.84;85.94;99790.72;10173940;29;20056;-73
2023/10/28 22:21:32;;;;;;;2.58;1.60;;;;;;;-0.94;86.00;99799.31;10136654;29;20048;-73
2023/10/28 22:26:57;;;;;;;2.30;1.45;;;;;;;-0.84;85.62;99798.78;10169859;29;20044;-73
2023/10/28 22:32:11;;;;;;;2.53;1.30;;;;;;;-0.89;86.00;99806.69;10150601;29;20572;-72
2023/10/28 22:37:32;;;;;;;1.98;1.38;;;;;;;-0.91;85.52;99803.41;10177202;29;20048;-73
2023/10/28 22:42:36;;;;;;;0.88;0.88;;;;;;;-0.98;85.87;99816.16;10141829;29;20484;-73
2023/10/28 22:47:39;;;;;;;1.63;1.27;;;;;;;-1.06;86.51;99822.66;10171936;29;20044;-73
2023/10/28 22:52:41;;;;;;;1.10;1.00;;;;;;;-1.04;86.44;99815.19;10155112;23;20059;-72
2023/10/28 22:57:44;;;;;;;2.05;1.20;;;;;;;-1.07;86.58;99829.09;10252326;28;20050;-72
2023/10/28 23:02:46;;;;;;;2.28;1.30;;;;;;;-1.07;86.63;99829.09;10235070;29;20054;-72
2023/10/28 23:07:50;;;;;;;1.25;1.10;;;;;;;-1.02;86.43;99836.50;10255224;28;20435;-72
2023/10/28 23:12:54;;;;;;;1.92;1.33;;;;;;;-1.10;86.06;99848.38;10306110;28;20038;-71
2023/10/28 23:17:57;;;;;;;1.40;1.30;;;;;;;-1.11;86.47;99838.66;10271499;28;20053;-72
2023/10/28 23:22:59;;;;;;;1.20;1.08;;;;;;;-1.14;86.37;99841.81;10310984;28;20058;-72
2023/10/28 23:28:02;;;;;;;1.35;1.20;;;;;;;-1.11;86.10;99845.91;10278554;28;20418;-72
2023/10/28 23:33:04;;;;;;;1.25;0.93;;;;;;;-1.15;85.73;99860.88;10280544;28;20048;-72
2023/10/28 23:38:08;;;;;;;2.00;1.25;;;;;;;-1.12;86.31;99855.88;10281804;28;20054;-71
2023/10/28 23:43:10;;;;;;;2.55;1.63;;;;;;;-1.14;86.71;99859.84;10250692;28;20042;-72
2023/10/28 23:48:15;;;;;;;1.73;1.20;;;;;;;-1.14;86.58;99852.56;10273647;28;20573;-71
2023/10/28 23:53:18;;;;;;;1.25;1.15;;;;;;;-1.14;86.81;99859.84;10281823;28;20062;-72
2023/10/28 23:58:22;;;;;;;3.28;1.15;;;;;;;-1.11;86.78;99860.19;10271469;28;20042;-72
